createdAt,value
2023-02-11T00:00:42.181Z,-0.28
2023-02-11T00:03:25.583Z,-0.31
2023-02-11T00:06:01.295Z,-0.35
2023-02-11T00:08:29.161Z,-0.38
2023-02-11T00:10:58.310Z,-0.40
2023-02-11T00:13:26.452Z,-0.43
2023-02-11T00:15:55.159Z,-0.45
2023-02-11T00:18:23.097Z,-0.48
2023-02-11T00:20:50.978Z,-0.52
2023-02-11T00:23:20.088Z,-0.54
2023-02-11T00:25:48.276Z,-0.57
2023-02-11T00:28:16.421Z,-0.59
2023-02-11T00:30:44.502Z,-0.67
2023-02-11T00:33:12.568Z,-0.71
2023-02-11T00:35:40.609Z,-0.76
2023-02-11T00:38:08.943Z,-0.77
2023-02-11T00:40:36.977Z,-0.80
2023-02-11T00:43:05.065Z,-0.81
2023-02-11T00:45:33.253Z,-0.83
2023-02-11T00:48:03.265Z,-0.81
2023-02-11T00:50:31.310Z,-0.77
2023-02-11T00:52:59.337Z,-0.77
2023-02-11T00:55:27.358Z,-0.79
2023-02-11T00:57:56.814Z,-0.83
2023-02-11T01:00:24.828Z,-0.86
2023-02-11T01:02:53.341Z,-0.87
2023-02-11T01:05:23.068Z,-0.86
2023-02-11T01:07:51.178Z,-0.88
2023-02-11T01:10:19.206Z,-0.90
2023-02-11T01:12:47.246Z,-0.90
2023-02-11T01:15:17.883Z,-0.89
2023-02-11T01:17:46.053Z,-0.91
2023-02-11T01:20:18.876Z,-0.93
2023-02-11T01:22:46.844Z,-0.96
2023-02-11T01:25:16.351Z,-0.99
2023-02-11T01:27:44.879Z,-0.99
2023-02-11T01:30:14.065Z,-0.97
2023-02-11T01:32:42.105Z,-0.91
2023-02-11T01:35:10.206Z,-0.86
2023-02-11T01:37:38.221Z,-0.82
2023-02-11T01:40:08.293Z,-0.83
2023-02-11T01:42:36.301Z,-0.82
2023-02-11T01:45:43.268Z,-0.82
2023-02-11T01:48:16.844Z,-0.81
2023-02-11T01:50:47.922Z,-0.82
2023-02-11T01:53:36.401Z,-0.83
2023-02-11T01:56:25.583Z,-0.82
2023-02-11T01:59:01.824Z,-0.83
2023-02-11T02:01:34.259Z,-0.80
2023-02-11T02:04:06.500Z,-0.73
2023-02-11T02:07:02.419Z,-0.68
2023-02-11T02:09:38.003Z,-0.66
2023-02-11T02:12:06.131Z,-0.59
2023-02-11T02:14:37.825Z,-0.51
2023-02-11T02:17:05.944Z,-0.49
2023-02-11T02:19:43.454Z,-0.52
2023-02-11T02:22:37.565Z,-0.57
2023-02-11T02:25:19.836Z,-0.63
2023-02-11T02:28:39.342Z,-0.62
2023-02-11T02:31:19.637Z,-0.57
2023-02-11T02:33:47.843Z,-0.56
2023-02-11T02:36:28.614Z,-0.54
2023-02-11T02:39:04.378Z,-0.52
2023-02-11T02:41:35.755Z,-0.49
2023-02-11T02:44:04.758Z,-0.49
2023-02-11T02:46:35.290Z,-0.44
2023-02-11T02:49:04.200Z,-0.38
2023-02-11T02:51:54.091Z,-0.34
2023-02-11T02:54:31.276Z,-0.29
2023-02-11T02:57:20.742Z,-0.24
2023-02-11T03:00:14.970Z,-0.23
2023-02-11T03:02:48.746Z,-0.20
2023-02-11T03:05:30.884Z,-0.19
2023-02-11T03:08:08.577Z,-0.16
2023-02-11T03:10:43.127Z,-0.12
2023-02-11T03:13:13.795Z,-0.10
2023-02-11T03:15:46.268Z,-0.05
2023-02-11T03:18:18.184Z,0.01
2023-02-11T03:20:50.959Z,0.07
2023-02-11T03:23:30.918Z,0.12
2023-02-11T03:26:06.555Z,0.19
2023-02-11T03:28:54.714Z,0.25
2023-02-11T03:31:48.644Z,0.24
2023-02-11T03:34:27.545Z,0.24
2023-02-11T03:37:02.767Z,0.23
2023-02-11T03:39:38.719Z,0.23
2023-02-11T03:42:10.882Z,0.22
2023-02-11T03:44:50.236Z,0.16
2023-02-11T03:47:23.827Z,0.13
2023-02-11T03:49:53.454Z,0.08
2023-02-11T03:52:24.882Z,0.06
2023-02-11T03:54:56.473Z,-0.01
2023-02-11T03:57:24.478Z,-0.04
2023-02-11T03:59:58.161Z,-0.05
2023-02-11T04:02:33.348Z,-0.06
2023-02-11T04:05:08.016Z,-0.03
2023-02-11T04:07:36.438Z,0.02
2023-02-11T04:10:05.411Z,0.03
2023-02-11T04:12:33.439Z,0.01
2023-02-11T04:15:01.351Z,-0.01
2023-02-11T04:17:29.330Z,-0.04
2023-02-11T04:19:58.268Z,-0.05
2023-02-11T04:22:46.493Z,-0.09
2023-02-11T04:25:14.452Z,-0.12
2023-02-11T04:27:42.462Z,-0.10
2023-02-11T04:30:12.489Z,-0.06
2023-02-11T04:32:40.502Z,-0.01
2023-02-11T04:35:08.780Z,-0.01
2023-02-11T04:37:36.658Z,-0.08
2023-02-11T04:40:04.943Z,-0.11
2023-02-11T04:42:32.974Z,-0.09
2023-02-11T04:45:01.128Z,-0.07
2023-02-11T04:47:29.090Z,-0.05
2023-02-11T04:49:57.047Z,-0.07
2023-02-11T04:52:25.138Z,-0.07
2023-02-11T04:54:53.074Z,-0.06
2023-02-11T04:57:20.986Z,-0.06
2023-02-11T04:59:49.023Z,-0.03
2023-02-11T05:02:16.967Z,-0.02
2023-02-11T05:04:44.926Z,-0.00
2023-02-11T05:07:12.958Z,0.03
2023-02-11T05:09:40.947Z,0.03
2023-02-11T05:12:08.854Z,0.07
2023-02-11T05:14:36.946Z,0.11
2023-02-11T05:17:04.929Z,0.16
2023-02-11T05:19:32.899Z,0.20
2023-02-11T05:22:03.485Z,0.24
2023-02-11T05:24:32.729Z,0.24
2023-02-11T05:27:01.671Z,0.28
2023-02-11T05:29:29.793Z,0.31
2023-02-11T05:31:59.609Z,0.31
2023-02-11T05:34:27.562Z,0.29
2023-02-11T05:36:56.237Z,0.29
2023-02-11T05:39:24.254Z,0.27
2023-02-11T05:41:52.223Z,0.27
2023-02-11T05:44:20.110Z,0.36
2023-02-11T05:46:49.243Z,0.41
2023-02-11T05:49:18.215Z,0.48
2023-02-11T05:51:46.246Z,0.53
2023-02-11T05:54:14.618Z,0.55
2023-02-11T05:56:44.835Z,0.54
2023-02-11T05:59:15.067Z,0.52
2023-02-11T06:01:43.405Z,0.49
2023-02-11T06:04:11.291Z,0.45
2023-02-11T06:06:39.169Z,0.42
2023-02-11T06:09:07.058Z,0.41
2023-02-11T06:11:34.958Z,0.39
2023-02-11T06:14:03.332Z,0.40
2023-02-11T06:16:31.440Z,0.42
2023-02-11T06:18:59.347Z,0.45
2023-02-11T06:22:07.799Z,0.45
2023-02-11T06:24:58.680Z,0.45
2023-02-11T06:27:25.539Z,0.45
2023-02-11T06:29:53.552Z,0.43
2023-02-11T06:32:42.195Z,0.38
2023-02-11T06:35:30.098Z,0.37
2023-02-11T06:37:58.010Z,0.39
2023-02-11T06:40:25.852Z,0.43
2023-02-11T06:42:54.007Z,0.45
2023-02-11T06:45:23.997Z,0.45
2023-02-11T06:47:53.240Z,0.47
2023-02-11T06:50:21.284Z,0.47
2023-02-11T06:52:49.529Z,0.45
2023-02-11T06:55:17.739Z,0.42
2023-02-11T06:57:45.802Z,0.44
2023-02-11T07:00:14.335Z,0.43
2023-02-11T07:02:42.549Z,0.50
2023-02-11T07:05:10.969Z,0.52
2023-02-11T07:07:38.925Z,0.58
2023-02-11T07:10:07.145Z,0.62
2023-02-11T07:12:35.434Z,0.61
2023-02-11T07:15:03.732Z,0.63
2023-02-11T07:17:31.778Z,0.68
2023-02-11T07:19:59.836Z,0.71
2023-02-11T07:22:30.339Z,0.76
2023-02-11T07:24:58.286Z,0.79
2023-02-11T07:27:26.234Z,0.83
2023-02-11T07:29:54.107Z,0.88
2023-02-11T07:32:22.005Z,0.93
2023-02-11T07:34:50.042Z,1.03
2023-02-11T07:37:18.359Z,1.19
2023-02-11T07:39:46.547Z,1.51
2023-02-11T07:42:14.719Z,1.91
2023-02-11T07:44:42.787Z,2.29
2023-02-11T07:47:10.772Z,2.58
2023-02-11T07:49:38.750Z,2.95
2023-02-11T07:52:06.784Z,3.17
2023-02-11T07:54:34.888Z,3.20
2023-02-11T07:57:02.818Z,3.13
2023-02-11T07:59:30.819Z,3.07
2023-02-11T08:01:58.865Z,3.13
2023-02-11T08:04:26.883Z,3.10
2023-02-11T08:06:59.122Z,3.02
2023-02-11T08:09:28.518Z,3.14
2023-02-11T08:11:56.518Z,3.24
2023-02-11T08:14:25.354Z,3.28
2023-02-11T08:16:53.453Z,3.19
2023-02-11T08:19:22.638Z,3.01
2023-02-11T08:21:51.179Z,2.89
2023-02-11T08:24:19.092Z,2.77
2023-02-11T08:26:47.032Z,2.66
2023-02-11T08:29:16.742Z,2.56
2023-02-11T08:31:47.267Z,2.47
2023-02-11T08:34:19.042Z,2.42
2023-02-11T08:36:47.926Z,2.43
2023-02-11T08:39:20.616Z,2.48
2023-02-11T08:41:54.836Z,2.56
2023-02-11T08:44:24.265Z,2.59
2023-02-11T08:46:53.068Z,2.57
2023-02-11T08:49:22.194Z,2.62
2023-02-11T08:51:50.626Z,2.67
2023-02-11T08:54:18.836Z,2.72
2023-02-11T08:56:51.462Z,2.79
2023-02-11T08:59:19.434Z,2.84
2023-02-11T09:01:48.387Z,2.94
2023-02-11T09:04:16.403Z,3.01
2023-02-11T09:06:44.481Z,3.09
2023-02-11T09:09:15.171Z,3.14
2023-02-11T09:11:44.689Z,3.12
2023-02-11T09:14:22.407Z,3.16
2023-02-11T09:16:51.991Z,3.23
2023-02-11T09:19:20.998Z,3.31
2023-02-11T09:21:49.230Z,3.35
2023-02-11T09:24:17.262Z,3.36
2023-02-11T09:26:45.502Z,3.38
2023-02-11T09:29:13.537Z,3.37
2023-02-11T09:31:41.661Z,3.33
2023-02-11T09:34:11.231Z,3.31
2023-02-11T09:36:41.182Z,3.35
2023-02-11T09:39:14.620Z,3.41
2023-02-11T09:41:55.091Z,3.45
2023-02-11T09:44:27.370Z,3.48
2023-02-11T09:47:01.679Z,3.48
2023-02-11T09:49:50.892Z,3.51
2023-02-11T09:52:44.441Z,3.56
2023-02-11T09:55:30.516Z,3.64
2023-02-11T09:57:58.674Z,3.67
2023-02-11T10:00:49.000Z,3.69
2023-02-11T10:03:36.125Z,3.76
2023-02-11T10:06:22.552Z,3.88
2023-02-11T10:09:25.667Z,3.94
2023-02-11T10:12:12.807Z,3.95
2023-02-11T10:14:50.295Z,4.04
2023-02-11T10:17:39.146Z,4.25
2023-02-11T10:20:37.696Z,4.43
2023-02-11T10:23:16.947Z,4.45
2023-02-11T10:25:53.063Z,4.44
2023-02-11T10:28:25.192Z,4.44
2023-02-11T10:30:58.137Z,4.42
2023-02-11T10:33:26.291Z,4.45
2023-02-11T10:35:54.451Z,4.65
2023-02-11T10:38:23.118Z,4.94
2023-02-11T10:40:52.108Z,5.33
2023-02-11T10:43:26.751Z,5.63
2023-02-11T10:45:56.757Z,5.90
2023-02-11T10:48:50.623Z,6.00
2023-02-11T10:51:22.342Z,5.80
2023-02-11T10:54:14.486Z,5.68
2023-02-11T10:56:50.177Z,5.62
2023-02-11T10:59:31.182Z,5.52
2023-02-11T11:02:23.636Z,5.39
2023-02-11T11:04:57.645Z,5.20
2023-02-11T11:07:28.944Z,5.03
2023-02-11T11:10:02.854Z,4.89
2023-02-11T11:12:34.936Z,4.69
2023-02-11T11:15:24.788Z,4.53
2023-02-11T11:18:28.409Z,4.37
2023-02-11T11:21:04.300Z,4.26
2023-02-11T11:23:33.206Z,4.18
2023-02-11T11:26:15.489Z,4.14
2023-02-11T11:28:57.928Z,4.11
2023-02-11T11:31:34.553Z,4.07
2023-02-11T11:34:23.688Z,4.04
2023-02-11T11:36:52.085Z,4.07
2023-02-11T11:39:32.934Z,4.12
2023-02-11T11:42:22.094Z,4.13
2023-02-11T11:45:19.624Z,4.06
2023-02-11T11:48:06.130Z,4.04
2023-02-11T11:50:45.750Z,4.03
2023-02-11T11:53:19.058Z,3.99
2023-02-11T11:56:03.925Z,4.01
2023-02-11T11:58:33.490Z,4.02
2023-02-11T12:01:21.767Z,4.01
2023-02-11T12:04:08.597Z,4.00
2023-02-11T12:06:55.872Z,3.93
2023-02-11T12:09:44.241Z,3.94
2023-02-11T12:12:54.712Z,3.94
2023-02-11T12:15:43.026Z,4.00
2023-02-11T12:18:51.609Z,4.05
2023-02-11T12:21:26.226Z,4.00
2023-02-11T12:24:16.308Z,3.96
2023-02-11T12:26:49.463Z,3.91
2023-02-11T12:29:41.817Z,3.82
2023-02-11T12:32:32.098Z,3.76
2023-02-11T12:35:15.062Z,3.65
2023-02-11T12:38:04.976Z,3.58
2023-02-11T12:40:55.923Z,3.51
2023-02-11T12:43:25.782Z,3.39
2023-02-11T12:46:34.018Z,3.31
2023-02-11T12:49:45.152Z,3.23
2023-02-11T12:52:15.985Z,3.11
2023-02-11T12:54:54.746Z,3.07
2023-02-11T12:57:27.804Z,3.06
2023-02-11T13:00:03.351Z,3.07
2023-02-11T13:02:45.800Z,3.12
2023-02-11T13:05:27.229Z,3.16
2023-02-11T13:08:21.353Z,3.18
2023-02-11T13:11:06.032Z,3.17
2023-02-11T13:13:47.817Z,3.19
2023-02-11T13:16:35.261Z,3.22
2023-02-11T13:19:15.563Z,3.21
2023-02-11T13:22:05.111Z,3.18
2023-02-11T13:25:21.948Z,3.14
2023-02-11T13:28:08.885Z,3.08
2023-02-11T13:30:46.851Z,3.06
2023-02-11T13:33:17.857Z,3.05
2023-02-11T13:36:09.528Z,3.00
2023-02-11T13:38:38.899Z,3.04
2023-02-11T13:41:06.950Z,3.03
2023-02-11T13:43:36.482Z,3.02
2023-02-11T13:46:07.804Z,3.01
2023-02-11T13:48:40.403Z,3.02
2023-02-11T13:51:13.402Z,3.02
2023-02-11T13:54:08.512Z,3.03
2023-02-11T13:56:44.150Z,3.03
2023-02-11T13:59:27.796Z,3.07
2023-02-11T14:02:36.796Z,3.11
2023-02-11T14:05:23.562Z,3.12
2023-02-11T14:08:28.776Z,3.11
2023-02-11T14:10:58.174Z,3.11
2023-02-11T14:13:34.495Z,3.11
2023-02-11T14:16:07.352Z,3.06
2023-02-11T14:18:35.363Z,3.04
2023-02-11T14:21:24.102Z,3.04
2023-02-11T14:23:53.785Z,3.06
2023-02-11T14:26:21.904Z,3.11
2023-02-11T14:28:59.732Z,3.13
2023-02-11T14:31:34.288Z,3.12
2023-02-11T14:34:39.532Z,3.09
2023-02-11T14:37:36.649Z,3.04
2023-02-11T14:40:24.675Z,3.03
2023-02-11T14:42:55.346Z,3.01
2023-02-11T14:45:29.126Z,3.00
2023-02-11T14:48:08.453Z,2.98
2023-02-11T14:50:52.061Z,3.00
2023-02-11T14:53:26.117Z,2.99
2023-02-11T14:55:55.681Z,2.99
2023-02-11T14:58:27.953Z,3.00
2023-02-11T15:01:01.020Z,3.02
2023-02-11T15:03:36.659Z,3.05
2023-02-11T15:06:14.266Z,3.08
2023-02-11T15:08:55.198Z,3.10
2023-02-11T15:11:24.576Z,3.11
2023-02-11T15:13:55.338Z,3.06
2023-02-11T15:16:27.593Z,3.01
2023-02-11T15:19:03.181Z,3.00
2023-02-11T15:21:34.582Z,3.02
2023-02-11T15:24:24.046Z,3.00
2023-02-11T15:27:01.375Z,3.00
2023-02-11T15:29:37.881Z,3.01
2023-02-11T15:32:13.001Z,3.03
2023-02-11T15:34:41.560Z,3.04
2023-02-11T15:37:36.744Z,3.04
2023-02-11T15:40:16.259Z,3.02
2023-02-11T15:43:03.004Z,3.00
2023-02-11T15:45:41.969Z,2.96
2023-02-11T15:48:12.773Z,2.93
2023-02-11T15:50:43.270Z,2.91
2023-02-11T15:53:40.680Z,2.90
2023-02-11T15:56:15.886Z,2.88
2023-02-11T15:58:47.579Z,2.83
2023-02-11T16:01:15.838Z,2.83
2023-02-11T16:03:49.413Z,2.84
2023-02-11T16:06:35.559Z,2.83
2023-02-11T16:09:21.651Z,2.81
2023-02-11T16:11:49.508Z,2.79
2023-02-11T16:14:39.520Z,2.78
2023-02-11T16:17:33.840Z,2.77
2023-02-11T16:20:02.169Z,2.77
2023-02-11T16:22:35.489Z,2.79
2023-02-11T16:25:03.933Z,2.80
2023-02-11T16:27:40.311Z,2.81
2023-02-11T16:30:37.670Z,2.80
2023-02-11T16:33:06.700Z,2.77
2023-02-11T16:35:34.675Z,2.75
2023-02-11T16:38:02.760Z,2.71
2023-02-11T16:40:30.762Z,2.70
2023-02-11T16:42:58.783Z,2.71
2023-02-11T16:45:26.988Z,2.71
2023-02-11T16:47:55.207Z,2.71
2023-02-11T16:50:25.622Z,2.72
2023-02-11T16:52:54.078Z,2.74
2023-02-11T16:55:22.362Z,2.74
2023-02-11T16:57:50.562Z,2.76
2023-02-11T17:00:20.011Z,2.80
2023-02-11T17:02:48.049Z,2.84
2023-02-11T17:05:20.303Z,2.85
2023-02-11T17:07:48.617Z,2.92
2023-02-11T17:10:19.922Z,2.97
2023-02-11T17:12:49.601Z,3.01
2023-02-11T17:15:17.557Z,3.03
2023-02-11T17:17:45.996Z,3.03
2023-02-11T17:20:14.978Z,3.05
2023-02-11T17:22:43.042Z,3.09
2023-02-11T17:25:11.435Z,3.14
2023-02-11T17:27:39.350Z,3.15
2023-02-11T17:30:08.269Z,3.15
2023-02-11T17:32:37.012Z,3.12
2023-02-11T17:35:08.506Z,3.12
2023-02-11T17:37:36.519Z,3.12
2023-02-11T17:40:04.980Z,3.13
2023-02-11T17:42:32.928Z,3.14
2023-02-11T17:45:00.876Z,3.17
2023-02-11T17:47:30.174Z,3.19
2023-02-11T17:49:58.381Z,3.20
2023-02-11T17:52:28.215Z,3.21
2023-02-11T17:54:56.395Z,3.22
2023-02-11T17:57:24.288Z,3.23
2023-02-11T17:59:54.628Z,3.24
2023-02-11T18:02:22.599Z,3.24
2023-02-11T18:04:52.465Z,3.28
2023-02-11T18:07:20.413Z,3.33
2023-02-11T18:09:48.352Z,3.36
2023-02-11T18:12:18.345Z,3.38
2023-02-11T18:14:46.345Z,3.40
2023-02-11T18:17:14.310Z,3.42
2023-02-11T18:19:42.102Z,3.44
2023-02-11T18:22:10.062Z,3.48
2023-02-11T18:24:38.039Z,3.50
2023-02-11T18:27:06.103Z,3.54
2023-02-11T18:29:34.150Z,3.56
2023-02-11T18:32:02.193Z,3.58
2023-02-11T18:34:30.255Z,3.60
2023-02-11T18:36:58.300Z,3.60
2023-02-11T18:39:26.536Z,3.60
2023-02-11T18:41:56.860Z,3.60
2023-02-11T18:44:26.177Z,3.61
2023-02-11T18:46:54.211Z,3.64
2023-02-11T18:49:22.139Z,3.65
2023-02-11T18:51:50.151Z,3.66
2023-02-11T18:54:18.147Z,3.65
2023-02-11T18:56:46.176Z,3.66
2023-02-11T18:59:22.195Z,3.69
2023-02-11T19:01:51.175Z,3.73
2023-02-11T19:04:20.205Z,3.76
2023-02-11T19:06:49.661Z,3.79
2023-02-11T19:09:37.737Z,3.82
2023-02-11T19:12:07.291Z,3.85
2023-02-11T19:14:36.189Z,3.87
2023-02-11T19:17:07.567Z,3.92
2023-02-11T19:20:16.086Z,3.96
2023-02-11T19:22:44.471Z,4.00
2023-02-11T19:25:13.291Z,4.01
2023-02-11T19:27:41.966Z,4.02
2023-02-11T19:30:10.708Z,4.05
2023-02-11T19:32:38.722Z,4.08
2023-02-11T19:35:07.127Z,4.13
2023-02-11T19:37:35.086Z,4.16
2023-02-11T19:40:26.423Z,4.20
2023-02-11T19:42:54.491Z,4.23
2023-02-11T19:45:22.969Z,4.27
2023-02-11T19:47:55.749Z,4.30
2023-02-11T19:50:24.420Z,4.33
2023-02-11T19:52:52.273Z,4.35
2023-02-11T19:55:20.290Z,4.38
2023-02-11T19:57:48.155Z,4.42
2023-02-11T20:00:16.496Z,4.44
2023-02-11T20:02:44.468Z,4.46
2023-02-11T20:05:12.401Z,4.50
2023-02-11T20:07:40.276Z,4.53
2023-02-11T20:10:08.741Z,4.55
2023-02-11T20:12:37.213Z,4.57
2023-02-11T20:15:05.846Z,4.60
2023-02-11T20:17:33.795Z,4.62
2023-02-11T20:20:01.897Z,4.63
2023-02-11T20:22:29.817Z,4.64
2023-02-11T20:24:57.769Z,4.64
2023-02-11T20:27:29.193Z,4.63
2023-02-11T20:29:57.115Z,4.65
2023-02-11T20:32:45.625Z,4.68
2023-02-11T20:35:13.492Z,4.71
2023-02-11T20:37:44.037Z,4.72
2023-02-11T20:40:12.676Z,4.74
2023-02-11T20:42:40.616Z,4.75
2023-02-11T20:45:09.995Z,4.77
2023-02-11T20:47:38.618Z,4.79
2023-02-11T20:50:07.429Z,4.80
2023-02-11T20:52:37.058Z,4.80
2023-02-11T20:55:05.292Z,4.81
2023-02-11T20:57:35.374Z,4.80
2023-02-11T21:00:04.456Z,4.79
2023-02-11T21:02:32.405Z,4.78
2023-02-11T21:05:00.394Z,4.75
2023-02-11T21:07:29.523Z,4.75
2023-02-11T21:09:57.449Z,4.78
2023-02-11T21:12:25.407Z,4.81
2023-02-11T21:14:55.083Z,4.81
2023-02-11T21:17:23.211Z,4.79
2023-02-11T21:19:51.199Z,4.80
2023-02-11T21:22:27.989Z,4.81
2023-02-11T21:24:55.936Z,4.82
2023-02-11T21:27:29.321Z,4.82
2023-02-11T21:29:57.195Z,4.81
2023-02-11T21:32:25.079Z,4.82
2023-02-11T21:34:54.189Z,4.83
2023-02-11T21:37:23.357Z,4.84
2023-02-11T21:39:51.424Z,4.83
2023-02-11T21:42:19.377Z,4.83
2023-02-11T21:44:47.502Z,4.87
2023-02-11T21:47:15.657Z,4.92
2023-02-11T21:49:43.594Z,4.95
2023-02-11T21:52:11.567Z,4.96
2023-02-11T21:54:39.532Z,4.97
2023-02-11T21:57:08.653Z,5.00
2023-02-11T21:59:36.654Z,5.01
2023-02-11T22:02:04.599Z,5.01
2023-02-11T22:04:33.589Z,4.99
2023-02-11T22:07:03.073Z,4.98
2023-02-11T22:09:30.919Z,4.95
2023-02-11T22:11:58.868Z,4.96
2023-02-11T22:14:26.838Z,4.98
2023-02-11T22:16:54.761Z,5.00
2023-02-11T22:19:24.205Z,5.01
2023-02-11T22:21:52.185Z,5.02
2023-02-11T22:24:20.804Z,5.04
2023-02-11T22:26:48.689Z,5.06
2023-02-11T22:29:17.101Z,5.08
2023-02-11T22:31:45.262Z,5.09
2023-02-11T22:34:13.291Z,5.10
2023-02-11T22:36:41.850Z,5.10
2023-02-11T22:39:15.867Z,5.09
2023-02-11T22:41:45.206Z,5.08
2023-02-11T22:44:13.988Z,5.06
2023-02-11T22:46:41.872Z,5.08
2023-02-11T22:49:13.723Z,5.08
2023-02-11T22:51:41.581Z,5.09
2023-02-11T22:54:11.856Z,5.11
2023-02-11T22:56:40.939Z,5.13
2023-02-11T22:59:13.604Z,5.14
2023-02-11T23:01:42.833Z,5.15
2023-02-11T23:04:12.417Z,5.17
2023-02-11T23:06:40.847Z,5.18
2023-02-11T23:09:12.440Z,5.20
2023-02-11T23:11:41.766Z,5.20
2023-02-11T23:14:12.177Z,5.21
2023-02-11T23:16:40.361Z,5.23
2023-02-11T23:19:09.119Z,5.23
2023-02-11T23:21:38.171Z,5.23
2023-02-11T23:24:14.046Z,5.23
2023-02-11T23:26:43.872Z,5.23
2023-02-11T23:29:12.691Z,5.24
2023-02-11T23:31:45.372Z,5.25
2023-02-11T23:34:25.443Z,5.26
2023-02-11T23:36:53.570Z,5.27
2023-02-11T23:39:21.507Z,5.29
2023-02-11T23:41:52.912Z,5.29
2023-02-11T23:44:20.834Z,5.31
2023-02-11T23:46:48.736Z,5.32
2023-02-11T23:49:16.648Z,5.32
2023-02-11T23:51:44.688Z,5.32
2023-02-11T23:54:14.734Z,5.31
2023-02-11T23:56:42.870Z,5.29
2023-02-11T23:59:11.829Z,5.30
